sensor_id;sensor_type;location;lat;lon;timestamp;pressure;altitude;pressure_sealevel;temperature;humidity
13952;BME280;39535;52.192;9.886;2023-08-31T00:01:31;99613.38;;;15.46;94.48
13952;BME280;39535;52.192;9.886;2023-08-31T00:03:58;99618.19;;;15.38;94.14
13952;BME280;39535;52.192;9.886;2023-08-31T00:06:25;99617.16;;;15.41;93.95
13952;BME280;39535;52.192;9.886;2023-08-31T00:08:51;99624.28;;;15.39;93.63
13952;BME280;39535;52.192;9.886;2023-08-31T00:11:18;99624.06;;;15.26;94.11
13952;BME280;39535;52.192;9.886;2023-08-31T00:13:45;99636.09;;;15.30;93.20
13952;BME280;39535;52.192;9.886;2023-08-31T00:16:13;99626.84;;;15.23;93.16
13952;BME280;39535;52.192;9.886;2023-08-31T00:18:40;99629.09;;;14.96;93.79
13952;BME280;39535;52.192;9.886;2023-08-31T00:21:07;99603.28;;;15.04;95.00
13952;BME280;39535;52.192;9.886;2023-08-31T00:23:33;99618.72;;;15.10;93.87
13952;BME280;39535;52.192;9.886;2023-08-31T00:26:02;99624.09;;;14.91;93.81
13952;BME280;39535;52.192;9.886;2023-08-31T00:28:29;99613.72;;;14.88;94.72
13952;BME280;39535;52.192;9.886;2023-08-31T00:30:55;99595.69;;;14.98;94.74
13952;BME280;39535;52.192;9.886;2023-08-31T00:33:25;99587.28;;;14.91;95.28
13952;BME280;39535;52.192;9.886;2023-08-31T00:35:52;99587.59;;;14.85;95.60
13952;BME280;39535;52.192;9.886;2023-08-31T00:38:22;99579.53;;;14.88;95.09
13952;BME280;39535;52.192;9.886;2023-08-31T00:40:49;99574.28;;;14.88;95.40
13952;BME280;39535;52.192;9.886;2023-08-31T00:43:16;99565.56;;;14.34;96.61
13952;BME280;39535;52.192;9.886;2023-08-31T00:45:43;99533.16;;;14.52;98.31
13952;BME280;39535;52.192;9.886;2023-08-31T00:48:11;99518.84;;;14.40;98.43
13952;BME280;39535;52.192;9.886;2023-08-31T00:50:39;99506.41;;;14.26;99.40
13952;BME280;39535;52.192;9.886;2023-08-31T00:53:06;99478.16;;;14.14;100.00
13952;BME280;39535;52.192;9.886;2023-08-31T00:55:33;99473.28;;;14.06;100.00
13952;BME280;39535;52.192;9.886;2023-08-31T00:57:59;99445.41;;;14.04;100.00
13952;BME280;39535;52.192;9.886;2023-08-31T01:00:32;99440.94;;;14.06;100.00
13952;BME280;39535;52.192;9.886;2023-08-31T01:03:01;99448.88;;;14.04;100.00
13952;BME280;39535;52.192;9.886;2023-08-31T01:05:37;99448.03;;;14.04;100.00
13952;BME280;39535;52.192;9.886;2023-08-31T01:08:18;99439.44;;;13.83;100.00
13952;BME280;39535;52.192;9.886;2023-08-31T01:10:58;99426.66;;;13.94;100.00
13952;BME280;39535;52.192;9.886;2023-08-31T01:13:30;99435.06;;;14.01;100.00
13952;BME280;39535;52.192;9.886;2023-08-31T01:16:00;99442.94;;;14.01;100.00
13952;BME280;39535;52.192;9.886;2023-08-31T01:18:28;99438.38;;;14.04;100.00
13952;BME280;39535;52.192;9.886;2023-08-31T01:21:01;99452.50;;;14.02;100.00
13952;BME280;39535;52.192;9.886;2023-08-31T01:23:44;99469.09;;;14.02;100.00
13952;BME280;39535;52.192;9.886;2023-08-31T01:26:11;99463.22;;;13.97;100.00
13952;BME280;39535;52.192;9.886;2023-08-31T01:28:38;99478.75;;;14.02;100.00
13952;BME280;39535;52.192;9.886;2023-08-31T01:31:05;99480.38;;;14.04;100.00
13952;BME280;39535;52.192;9.886;2023-08-31T01:33:32;99484.91;;;14.01;100.00
13952;BME280;39535;52.192;9.886;2023-08-31T01:36:02;99471.78;;;14.01;100.00
13952;BME280;39535;52.192;9.886;2023-08-31T01:38:32;99476.13;;;14.02;100.00
13952;BME280;39535;52.192;9.886;2023-08-31T01:41:06;99497.31;;;13.97;100.00
13952;BME280;39535;52.192;9.886;2023-08-31T01:43:34;99499.94;;;13.97;100.00
13952;BME280;39535;52.192;9.886;2023-08-31T01:46:01;99503.50;;;13.96;100.00
13952;BME280;39535;52.192;9.886;2023-08-31T01:48:28;99511.56;;;14.10;100.00
13952;BME280;39535;52.192;9.886;2023-08-31T01:50:54;99533.19;;;14.16;99.73
13952;BME280;39535;52.192;9.886;2023-08-31T01:53:21;99546.31;;;14.16;99.17
13952;BME280;39535;52.192;9.886;2023-08-31T01:55:48;99538.09;;;14.04;99.66
13952;BME280;39535;52.192;9.886;2023-08-31T01:58:15;99523.44;;;14.00;100.00
13952;BME280;39535;52.192;9.886;2023-08-31T02:00:42;99518.47;;;13.94;100.00
13952;BME280;39535;52.192;9.886;2023-08-31T02:03:09;99515.22;;;13.89;100.00
13952;BME280;39535;52.192;9.886;2023-08-31T02:05:36;99508.88;;;13.93;100.00
13952;BME280;39535;52.192;9.886;2023-08-31T02:08:03;99513.94;;;13.98;100.00
13952;BME280;39535;52.192;9.886;2023-08-31T02:10:30;99510.19;;;14.03;100.00
13952;BME280;39535;52.192;9.886;2023-08-31T02:12:56;99534.63;;;14.04;100.00
13952;BME280;39535;52.192;9.886;2023-08-31T02:15:24;99549.53;;;14.03;99.78
13952;BME280;39535;52.192;9.886;2023-08-31T02:17:51;99541.50;;;14.06;100.00
13952;BME280;39535;52.192;9.886;2023-08-31T02:20:17;99539.88;;;14.04;100.00
13952;BME280;39535;52.192;9.886;2023-08-31T02:22:45;99545.13;;;14.04;100.00
13952;BME280;39535;52.192;9.886;2023-08-31T02:25:12;99561.78;;;14.03;99.48
13952;BME280;39535;52.192;9.886;2023-08-31T02:27:39;99555.75;;;14.01;100.00
13952;BME280;39535;52.192;9.886;2023-08-31T02:30:06;99561.78;;;14.03;99.45
13952;BME280;39535;52.192;9.886;2023-08-31T02:32:35;99570.72;;;14.18;99.16
13952;BME280;39535;52.192;9.886;2023-08-31T02:35:02;99593.81;;;14.28;97.86
13952;BME280;39535;52.192;9.886;2023-08-31T02:37:28;99594.47;;;14.34;97.82
13952;BME280;39535;52.192;9.886;2023-08-31T02:39:55;99604.91;;;14.35;97.54
13952;BME280;39535;52.192;9.886;2023-08-31T02:42:21;99621.13;;;14.43;96.78
13952;BME280;39535;52.192;9.886;2023-08-31T02:44:52;99644.47;;;14.30;96.48
13952;BME280;39535;52.192;9.886;2023-08-31T02:47:18;99635.69;;;14.32;96.52
13952;BME280;39535;52.192;9.886;2023-08-31T02:49:46;99624.47;;;14.28;96.89
13952;BME280;39535;52.192;9.886;2023-08-31T02:52:14;99616.16;;;14.37;97.21
13952;BME280;39535;52.192;9.886;2023-08-31T02:54:40;99616.84;;;14.41;96.76
13952;BME280;39535;52.192;9.886;2023-08-31T02:57:07;99617.56;;;14.44;96.37
13952;BME280;39535;52.192;9.886;2023-08-31T02:59:33;99622.81;;;14.44;96.34
13952;BME280;39535;52.192;9.886;2023-08-31T03:02:01;99628.53;;;14.35;96.25
13952;BME280;39535;52.192;9.886;2023-08-31T03:04:27;99620.66;;;14.35;96.81
13952;BME280;39535;52.192;9.886;2023-08-31T03:06:55;99618.69;;;14.39;96.71
13952;BME280;39535;52.192;9.886;2023-08-31T03:09:22;99622.75;;;14.46;95.83
13952;BME280;39535;52.192;9.886;2023-08-31T03:11:48;99629.84;;;14.44;95.87
13952;BME280;39535;52.192;9.886;2023-08-31T03:14:15;99627.00;;;14.48;96.15
13952;BME280;39535;52.192;9.886;2023-08-31T03:16:41;99634.19;;;14.45;95.87
13952;BME280;39535;52.192;9.886;2023-08-31T03:19:08;99630.50;;;14.49;95.49
13952;BME280;39535;52.192;9.886;2023-08-31T03:21:35;99642.56;;;14.34;95.52
13952;BME280;39535;52.192;9.886;2023-08-31T03:24:03;99636.16;;;14.40;96.22
13952;BME280;39535;52.192;9.886;2023-08-31T03:26:30;99627.09;;;14.47;96.46
13952;BME280;39535;52.192;9.886;2023-08-31T03:28:56;99633.19;;;14.47;96.32
13952;BME280;39535;52.192;9.886;2023-08-31T03:31:23;99636.59;;;14.49;95.65
13952;BME280;39535;52.192;9.886;2023-08-31T03:33:50;99649.84;;;14.46;95.51
13952;BME280;39535;52.192;9.886;2023-08-31T03:36:16;99650.91;;;14.42;95.92
13952;BME280;39535;52.192;9.886;2023-08-31T03:38:43;99636.94;;;14.42;96.01
13952;BME280;39535;52.192;9.886;2023-08-31T03:41:11;99632.25;;;14.48;96.20
13952;BME280;39535;52.192;9.886;2023-08-31T03:43:38;99643.53;;;14.50;95.50
13952;BME280;39535;52.192;9.886;2023-08-31T03:46:04;99647.16;;;14.48;95.10
13952;BME280;39535;52.192;9.886;2023-08-31T03:48:31;99647.94;;;14.50;95.35
13952;BME280;39535;52.192;9.886;2023-08-31T03:50:57;99641.91;;;14.48;95.78
13952;BME280;39535;52.192;9.886;2023-08-31T03:53:24;99661.34;;;14.44;94.75
13952;BME280;39535;52.192;9.886;2023-08-31T03:55:50;99674.41;;;14.45;94.29
13952;BME280;39535;52.192;9.886;2023-08-31T03:58:18;99673.56;;;14.45;94.71
13952;BME280;39535;52.192;9.886;2023-08-31T04:00:49;99682.50;;;14.41;93.92
13952;BME280;39535;52.192;9.886;2023-08-31T04:03:15;99693.38;;;14.33;93.82
13952;BME280;39535;52.192;9.886;2023-08-31T04:05:42;99701.31;;;14.32;94.11
13952;BME280;39535;52.192;9.886;2023-08-31T04:08:08;99697.91;;;14.29;94.35
13952;BME280;39535;52.192;9.886;2023-08-31T04:10:35;99700.72;;;14.25;94.10
13952;BME280;39535;52.192;9.886;2023-08-31T04:13:01;99707.91;;;14.21;94.68
13952;BME280;39535;52.192;9.886;2023-08-31T04:15:29;99705.13;;;14.24;94.36
13952;BME280;39535;52.192;9.886;2023-08-31T04:17:56;99713.16;;;14.21;94.97
13952;BME280;39535;52.192;9.886;2023-08-31T04:20:23;99713.00;;;14.24;94.58
13952;BME280;39535;52.192;9.886;2023-08-31T04:22:50;99717.41;;;14.24;94.26
13952;BME280;39535;52.192;9.886;2023-08-31T04:25:16;99705.41;;;14.18;94.81
13952;BME280;39535;52.192;9.886;2023-08-31T04:27:43;99706.13;;;14.22;94.97
13952;BME280;39535;52.192;9.886;2023-08-31T04:30:11;99706.13;;;14.22;94.94
13952;BME280;39535;52.192;9.886;2023-08-31T04:32:39;99701.00;;;14.19;95.35
13952;BME280;39535;52.192;9.886;2023-08-31T04:35:06;99699.31;;;14.18;95.23
13952;BME280;39535;52.192;9.886;2023-08-31T04:37:32;99694.09;;;14.18;95.49
13952;BME280;39535;52.192;9.886;2023-08-31T04:39:59;99681.03;;;14.16;96.16
13952;BME280;39535;52.192;9.886;2023-08-31T04:42:26;99673.22;;;14.15;96.25
13952;BME280;39535;52.192;9.886;2023-08-31T04:44:53;99683.00;;;14.11;96.14
13952;BME280;39535;52.192;9.886;2023-08-31T04:47:19;99677.91;;;14.08;96.21
13952;BME280;39535;52.192;9.886;2023-08-31T04:49:47;99697.06;;;14.10;95.37
13952;BME280;39535;52.192;9.886;2023-08-31T04:52:14;99718.25;;;14.05;94.29
13952;BME280;39535;52.192;9.886;2023-08-31T04:54:40;99720.28;;;13.99;95.45
13952;BME280;39535;52.192;9.886;2023-08-31T04:57:07;99713.84;;;14.06;95.00
13952;BME280;39535;52.192;9.886;2023-08-31T04:59:33;99722.63;;;14.05;94.66
13952;BME280;39535;52.192;9.886;2023-08-31T05:02:00;99737.31;;;14.09;94.18
13952;BME280;39535;52.192;9.886;2023-08-31T05:04:26;99745.06;;;14.12;93.80
13952;BME280;39535;52.192;9.886;2023-08-31T05:06:55;99754.63;;;14.13;94.17
13952;BME280;39535;52.192;9.886;2023-08-31T05:09:23;99748.34;;;14.17;94.31
13952;BME280;39535;52.192;9.886;2023-08-31T05:11:50;99745.78;;;14.16;94.62
13952;BME280;39535;52.192;9.886;2023-08-31T05:14:16;99743.09;;;14.17;94.82
13952;BME280;39535;52.192;9.886;2023-08-31T05:16:43;99738.63;;;14.19;95.20
13952;BME280;39535;52.192;9.886;2023-08-31T05:19:09;99733.44;;;14.18;96.33
13952;BME280;39535;52.192;9.886;2023-08-31T05:21:36;99720.88;;;14.24;96.15
13952;BME280;39535;52.192;9.886;2023-08-31T05:24:05;99718.84;;;14.31;96.27
13952;BME280;39535;52.192;9.886;2023-08-31T05:26:32;99717.78;;;14.35;96.17
13952;BME280;39535;52.192;9.886;2023-08-31T05:28:59;99720.97;;;14.42;96.06
13952;BME280;39535;52.192;9.886;2023-08-31T05:31:26;99740.97;;;14.44;95.60
13952;BME280;39535;52.192;9.886;2023-08-31T05:33:52;99738.84;;;14.34;95.61
13952;BME280;39535;52.192;9.886;2023-08-31T05:36:19;99731.47;;;14.42;95.99
13952;BME280;39535;52.192;9.886;2023-08-31T05:38:45;99731.47;;;14.42;95.71
13952;BME280;39535;52.192;9.886;2023-08-31T05:41:13;99738.84;;;14.53;95.51
13952;BME280;39535;52.192;9.886;2023-08-31T05:43:40;99736.84;;;14.39;95.83
13952;BME280;39535;52.192;9.886;2023-08-31T05:46:06;99746.16;;;14.46;95.72
13952;BME280;39535;52.192;9.886;2023-08-31T05:48:33;99736.97;;;14.56;95.40
13952;BME280;39535;52.192;9.886;2023-08-31T05:51:00;99741.56;;;14.51;95.93
13952;BME280;39535;52.192;9.886;2023-08-31T05:53:26;99732.34;;;14.61;96.07
13952;BME280;39535;52.192;9.886;2023-08-31T05:55:54;99747.28;;;14.61;95.35
13952;BME280;39535;52.192;9.886;2023-08-31T05:58:30;99754.44;;;14.57;95.34
13952;BME280;39535;52.192;9.886;2023-08-31T06:00:56;99761.25;;;14.61;95.33
13952;BME280;39535;52.192;9.886;2023-08-31T06:03:23;99776.84;;;14.25;94.46
13952;BME280;39535;52.192;9.886;2023-08-31T06:05:50;99765.66;;;14.21;95.87
13952;BME280;39535;52.192;9.886;2023-08-31T06:08:17;99739.34;;;14.42;96.72
13952;BME280;39535;52.192;9.886;2023-08-31T06:10:43;99742.81;;;14.42;96.06
13952;BME280;39535;52.192;9.886;2023-08-31T06:13:10;99748.72;;;14.47;96.18
13952;BME280;39535;52.192;9.886;2023-08-31T06:15:37;99755.81;;;14.45;95.38
13952;BME280;39535;52.192;9.886;2023-08-31T06:18:05;99776.94;;;14.23;94.68
13952;BME280;39535;52.192;9.886;2023-08-31T06:20:32;99764.38;;;14.30;95.66
13952;BME280;39535;52.192;9.886;2023-08-31T06:22:58;99763.22;;;14.17;94.59
13952;BME280;39535;52.192;9.886;2023-08-31T06:25:25;99758.91;;;14.35;95.98
13952;BME280;39535;52.192;9.886;2023-08-31T06:27:51;99758.34;;;14.28;95.85
13952;BME280;39535;52.192;9.886;2023-08-31T06:30:18;99752.59;;;14.39;95.89
13952;BME280;39535;52.192;9.886;2023-08-31T06:32:47;99775.44;;;14.37;94.68
13952;BME280;39535;52.192;9.886;2023-08-31T06:35:15;99781.38;;;14.42;94.19
13952;BME280;39535;52.192;9.886;2023-08-31T06:37:42;99777.25;;;14.36;95.10
13952;BME280;39535;52.192;9.886;2023-08-31T06:40:10;99759.84;;;14.53;95.65
13952;BME280;39535;52.192;9.886;2023-08-31T06:42:37;99771.75;;;14.61;94.15
13952;BME280;39535;52.192;9.886;2023-08-31T06:45:05;99808.63;;;14.39;92.96
13952;BME280;39535;52.192;9.886;2023-08-31T06:47:32;99802.56;;;14.77;93.27
13952;BME280;39535;52.192;9.886;2023-08-31T06:50:01;99807.03;;;14.94;92.91
13952;BME280;39535;52.192;9.886;2023-08-31T06:52:28;99813.72;;;15.01;92.57
13952;BME280;39535;52.192;9.886;2023-08-31T06:54:55;99868.78;;;14.64;89.45
13952;BME280;39535;52.192;9.886;2023-08-31T06:57:22;99870.00;;;14.76;90.55
13952;BME280;39535;52.192;9.886;2023-08-31T06:59:48;99854.19;;;14.78;91.96
13952;BME280;39535;52.192;9.886;2023-08-31T07:02:15;99853.63;;;14.90;91.36
13952;BME280;39535;52.192;9.886;2023-08-31T07:04:42;99852.19;;;15.02;91.21
13952;BME280;39535;52.192;9.886;2023-08-31T07:07:11;99836.13;;;15.08;92.13
13952;BME280;39535;52.192;9.886;2023-08-31T07:09:39;99865.03;;;15.08;90.01
13952;BME280;39535;52.192;9.886;2023-08-31T07:12:06;99878.91;;;14.93;89.22
13952;BME280;39535;52.192;9.886;2023-08-31T07:14:32;99894.81;;;14.89;89.06
13952;BME280;39535;52.192;9.886;2023-08-31T07:16:59;99915.84;;;14.89;88.87
13952;BME280;39535;52.192;9.886;2023-08-31T07:19:25;99912.66;;;14.83;89.19
13952;BME280;39535;52.192;9.886;2023-08-31T07:21:53;99911.59;;;14.87;88.76
13952;BME280;39535;52.192;9.886;2023-08-31T07:24:22;99901.41;;;14.98;89.62
13952;BME280;39535;52.192;9.886;2023-08-31T07:26:49;99903.09;;;14.80;88.59
13952;BME280;39535;52.192;9.886;2023-08-31T07:29:16;99887.00;;;14.88;90.58
13952;BME280;39535;52.192;9.886;2023-08-31T07:31:42;99904.41;;;14.91;88.59
13952;BME280;39535;52.192;9.886;2023-08-31T07:34:09;99935.06;;;14.71;88.73
13952;BME280;39535;52.192;9.886;2023-08-31T07:36:36;99955.97;;;14.52;87.47
13952;BME280;39535;52.192;9.886;2023-08-31T07:39:02;99940.59;;;14.65;88.73
13952;BME280;39535;52.192;9.886;2023-08-31T07:41:31;99923.44;;;14.77;89.29
13952;BME280;39535;52.192;9.886;2023-08-31T07:43:57;99920.88;;;14.94;89.58
13952;BME280;39535;52.192;9.886;2023-08-31T07:46:24;99916.84;;;15.06;89.57
13952;BME280;39535;52.192;9.886;2023-08-31T07:48:50;99928.28;;;15.05;88.48
13952;BME280;39535;52.192;9.886;2023-08-31T07:51:17;99982.78;;;14.60;86.71
13952;BME280;39535;52.192;9.886;2023-08-31T07:53:48;99945.19;;;14.60;88.61
13952;BME280;39535;52.192;9.886;2023-08-31T07:56:14;99925.72;;;14.64;89.52
13952;BME280;39535;52.192;9.886;2023-08-31T07:58:42;99922.00;;;14.69;88.95
13952;BME280;39535;52.192;9.886;2023-08-31T08:01:09;99932.38;;;14.92;89.41
13952;BME280;39535;52.192;9.886;2023-08-31T08:03:35;99961.97;;;14.76;87.42
13952;BME280;39535;52.192;9.886;2023-08-31T08:06:02;99952.91;;;15.02;88.21
13952;BME280;39535;52.192;9.886;2023-08-31T08:08:29;99973.69;;;15.08;87.44
13952;BME280;39535;52.192;9.886;2023-08-31T08:10:56;99991.38;;;15.05;87.04
13952;BME280;39535;52.192;9.886;2023-08-31T08:13:23;99983.94;;;15.15;87.08
13952;BME280;39535;52.192;9.886;2023-08-31T08:15:50;99995.66;;;15.26;87.06
13952;BME280;39535;52.192;9.886;2023-08-31T08:18:17;99987.91;;;15.23;87.51
13952;BME280;39535;52.192;9.886;2023-08-31T08:20:47;100038.31;;;15.33;85.10
13952;BME280;39535;52.192;9.886;2023-08-31T08:23:13;100045.28;;;15.53;85.39
13952;BME280;39535;52.192;9.886;2023-08-31T08:25:40;100076.00;;;15.53;83.21
13952;BME280;39535;52.192;9.886;2023-08-31T08:28:07;100109.28;;;15.54;82.88
13952;BME280;39535;52.192;9.886;2023-08-31T08:30:33;100100.13;;;15.62;83.27
13952;BME280;39535;52.192;9.886;2023-08-31T08:33:01;100109.28;;;15.54;82.49
13952;BME280;39535;52.192;9.886;2023-08-31T08:35:28;100124.22;;;15.53;82.52
13952;BME280;39535;52.192;9.886;2023-08-31T08:37:54;100111.50;;;15.63;83.20
13952;BME280;39535;52.192;9.886;2023-08-31T08:40:21;100107.97;;;15.64;83.32
13952;BME280;39535;52.192;9.886;2023-08-31T08:42:48;100111.16;;;15.71;83.45
13952;BME280;39535;52.192;9.886;2023-08-31T08:45:20;100117.44;;;15.68;82.80
13952;BME280;39535;52.192;9.886;2023-08-31T08:47:50;100101.72;;;15.85;83.59
13952;BME280;39535;52.192;9.886;2023-08-31T08:50:19;100072.72;;;15.87;84.15
13952;BME280;39535;52.192;9.886;2023-08-31T08:52:48;100103.28;;;15.89;82.25
13952;BME280;39535;52.192;9.886;2023-08-31T08:55:15;100133.91;;;15.92;81.51
13952;BME280;39535;52.192;9.886;2023-08-31T08:57:42;100135.03;;;15.86;81.78
13952;BME280;39535;52.192;9.886;2023-08-31T09:00:09;100164.34;;;15.58;82.01
13952;BME280;39535;52.192;9.886;2023-08-31T09:02:36;100119.91;;;15.92;82.91
13952;BME280;39535;52.192;9.886;2023-08-31T09:05:03;100100.59;;;15.91;83.52
13952;BME280;39535;52.192;9.886;2023-08-31T09:07:34;100072.88;;;16.20;84.93
13952;BME280;39535;52.192;9.886;2023-08-31T09:10:02;100054.19;;;16.44;83.39
13952;BME280;39535;52.192;9.886;2023-08-31T09:12:29;100139.44;;;16.24;80.24
13952;BME280;39535;52.192;9.886;2023-08-31T09:14:59;100165.69;;;15.87;80.74
13952;BME280;39535;52.192;9.886;2023-08-31T09:17:26;100172.53;;;15.92;80.16
13952;BME280;39535;52.192;9.886;2023-08-31T09:20:00;100171.53;;;16.13;80.77
13952;BME280;39535;52.192;9.886;2023-08-31T09:22:28;100173.09;;;16.17;80.33
13952;BME280;39535;52.192;9.886;2023-08-31T09:24:56;100161.00;;;16.13;80.70
13952;BME280;39535;52.192;9.886;2023-08-31T09:27:23;100197.88;;;15.94;78.98
13952;BME280;39535;52.192;9.886;2023-08-31T09:29:50;100184.56;;;16.16;79.58
13952;BME280;39535;52.192;9.886;2023-08-31T09:32:17;100205.03;;;15.91;78.68
13952;BME280;39535;52.192;9.886;2023-08-31T09:34:44;100199.00;;;15.88;79.20
13952;BME280;39535;52.192;9.886;2023-08-31T09:37:11;100191.28;;;16.23;79.47
13952;BME280;39535;52.192;9.886;2023-08-31T09:39:38;100218.31;;;16.08;77.93
13952;BME280;39535;52.192;9.886;2023-08-31T09:42:06;100213.94;;;16.07;79.02
13952;BME280;39535;52.192;9.886;2023-08-31T09:44:33;100200.81;;;16.26;79.73
13952;BME280;39535;52.192;9.886;2023-08-31T09:47:00;100172.56;;;16.47;79.52
13952;BME280;39535;52.192;9.886;2023-08-31T09:49:28;100174.38;;;16.46;79.57
13952;BME280;39535;52.192;9.886;2023-08-31T09:51:55;100164.19;;;16.39;79.57
13952;BME280;39535;52.192;9.886;2023-08-31T09:54:27;100161.25;;;16.45;79.91
13952;BME280;39535;52.192;9.886;2023-08-31T09:56:56;100171.69;;;16.10;79.73
13952;BME280;39535;52.192;9.886;2023-08-31T09:59:26;100164.06;;;16.23;80.00
13952;BME280;39535;52.192;9.886;2023-08-31T10:01:53;100162.44;;;16.20;79.52
13952;BME280;39535;52.192;9.886;2023-08-31T10:04:21;100162.31;;;16.23;79.67
13952;BME280;39535;52.192;9.886;2023-08-31T10:06:50;100148.03;;;16.46;80.84
13952;BME280;39535;52.192;9.886;2023-08-31T10:09:17;100172.69;;;16.45;78.81
13952;BME280;39535;52.192;9.886;2023-08-31T10:11:44;100183.69;;;16.35;78.84
13952;BME280;39535;52.192;9.886;2023-08-31T10:14:11;100172.25;;;16.36;79.37
13952;BME280;39535;52.192;9.886;2023-08-31T10:16:41;100182.38;;;16.62;79.22
13952;BME280;39535;52.192;9.886;2023-08-31T10:19:10;100191.84;;;16.66;78.74
13952;BME280;39535;52.192;9.886;2023-08-31T10:21:36;100212.88;;;16.68;78.61
13952;BME280;39535;52.192;9.886;2023-08-31T10:24:04;100192.06;;;16.81;79.13
13952;BME280;39535;52.192;9.886;2023-08-31T10:26:32;100220.88;;;16.47;78.26
13952;BME280;39535;52.192;9.886;2023-08-31T10:28:59;100198.28;;;16.61;79.03
13952;BME280;39535;52.192;9.886;2023-08-31T10:31:29;100191.94;;;16.65;78.67
13952;BME280;39535;52.192;9.886;2023-08-31T10:33:58;100200.41;;;16.72;78.34
13952;BME280;39535;52.192;9.886;2023-08-31T10:36:36;100191.94;;;16.65;79.06
13952;BME280;39535;52.192;9.886;2023-08-31T10:39:11;100190.41;;;16.78;78.83
13952;BME280;39535;52.192;9.886;2023-08-31T10:41:38;100193.34;;;16.72;78.55
13952;BME280;39535;52.192;9.886;2023-08-31T10:44:18;100172.88;;;16.41;79.69
13952;BME280;39535;52.192;9.886;2023-08-31T10:46:45;100198.78;;;16.50;76.75
13952;BME280;39535;52.192;9.886;2023-08-31T10:49:17;100231.06;;;16.55;77.04
13952;BME280;39535;52.192;9.886;2023-08-31T10:51:46;100239.09;;;16.71;76.78
13952;BME280;39535;52.192;9.886;2023-08-31T10:54:20;100216.44;;;16.86;77.29
13952;BME280;39535;52.192;9.886;2023-08-31T10:57:02;100272.88;;;16.82;75.56
13952;BME280;39535;52.192;9.886;2023-08-31T10:59:46;100280.56;;;16.86;76.02
13952;BME280;39535;52.192;9.886;2023-08-31T11:02:27;100294.25;;;16.95;74.54
13952;BME280;39535;52.192;9.886;2023-08-31T11:04:59;100326.03;;;17.11;73.25
13952;BME280;39535;52.192;9.886;2023-08-31T11:07:28;100387.41;;;16.75;70.90
13952;BME280;39535;52.192;9.886;2023-08-31T11:10:07;100374.50;;;16.89;72.78
13952;BME280;39535;52.192;9.886;2023-08-31T11:12:34;100336.34;;;17.15;74.49
13952;BME280;39535;52.192;9.886;2023-08-31T11:15:00;100396.81;;;17.01;70.77
13952;BME280;39535;52.192;9.886;2023-08-31T11:17:29;100402.56;;;16.90;71.39
13952;BME280;39535;52.192;9.886;2023-08-31T11:19:57;100404.22;;;16.93;72.48
13952;BME280;39535;52.192;9.886;2023-08-31T11:22:23;100416.34;;;16.97;71.17
13952;BME280;39535;52.192;9.886;2023-08-31T11:24:50;100420.47;;;17.21;70.98
13952;BME280;39535;52.192;9.886;2023-08-31T11:27:19;100422.31;;;17.19;70.61
13952;BME280;39535;52.192;9.886;2023-08-31T11:29:46;100399.72;;;17.33;72.15
13952;BME280;39535;52.192;9.886;2023-08-31T11:32:12;100407.16;;;17.42;71.13
13952;BME280;39535;52.192;9.886;2023-08-31T11:34:44;100406.84;;;17.67;69.93
13952;BME280;39535;52.192;9.886;2023-08-31T11:37:13;100477.72;;;18.30;66.43
13952;BME280;39535;52.192;9.886;2023-08-31T11:39:41;100527.72;;;18.87;64.92
13952;BME280;39535;52.192;9.886;2023-08-31T11:42:08;100596.66;;;18.48;64.81
13952;BME280;39535;52.192;9.886;2023-08-31T11:44:35;100607.38;;;19.65;62.22
13952;BME280;39535;52.192;9.886;2023-08-31T11:47:02;100688.09;;;19.58;60.86
13952;BME280;39535;52.192;9.886;2023-08-31T11:49:29;100717.53;;;19.69;60.29
13952;BME280;39535;52.192;9.886;2023-08-31T11:51:55;100719.81;;;20.58;58.61
13952;BME280;39535;52.192;9.886;2023-08-31T11:54:25;100794.03;;;20.26;58.28
13952;BME280;39535;52.192;9.886;2023-08-31T11:56:52;100794.63;;;20.31;57.65
13952;BME280;39535;52.192;9.886;2023-08-31T11:59:19;100808.00;;;20.30;57.84
13952;BME280;39535;52.192;9.886;2023-08-31T12:01:48;100829.75;;;19.32;58.64
13952;BME280;39535;52.192;9.886;2023-08-31T12:04:16;100762.75;;;19.12;61.27
13952;BME280;39535;52.192;9.886;2023-08-31T12:06:46;100719.00;;;19.92;60.10
13952;BME280;39535;52.192;9.886;2023-08-31T12:09:13;100741.97;;;19.92;59.42
13952;BME280;39535;52.192;9.886;2023-08-31T12:11:41;100761.41;;;19.75;57.72
13952;BME280;39535;52.192;9.886;2023-08-31T12:14:19;100751.38;;;19.47;58.90
13952;BME280;39535;52.192;9.886;2023-08-31T12:16:46;100757.59;;;19.80;58.71
13952;BME280;39535;52.192;9.886;2023-08-31T12:19:13;100773.63;;;19.95;57.03
13952;BME280;39535;52.192;9.886;2023-08-31T12:21:41;100791.88;;;20.17;57.36
13952;BME280;39535;52.192;9.886;2023-08-31T12:24:08;100782.59;;;20.41;57.31
13952;BME280;39535;52.192;9.886;2023-08-31T12:26:34;100780.81;;;20.58;56.90
13952;BME280;39535;52.192;9.886;2023-08-31T12:29:02;100780.75;;;21.07;56.65
13952;BME280;39535;52.192;9.886;2023-08-31T12:31:30;100805.66;;;21.05;55.87
13952;BME280;39535;52.192;9.886;2023-08-31T12:33:57;100852.25;;;20.94;55.33
13952;BME280;39535;52.192;9.886;2023-08-31T12:36:24;100817.66;;;20.96;57.01
13952;BME280;39535;52.192;9.886;2023-08-31T12:38:50;100821.81;;;21.32;56.76
13952;BME280;39535;52.192;9.886;2023-08-31T12:41:17;100870.31;;;21.03;53.90
13952;BME280;39535;52.192;9.886;2023-08-31T12:43:45;100908.81;;;20.46;54.23
13952;BME280;39535;52.192;9.886;2023-08-31T12:46:12;100884.91;;;20.63;54.69
13952;BME280;39535;52.192;9.886;2023-08-31T12:48:39;100880.72;;;20.75;55.20
13952;BME280;39535;52.192;9.886;2023-08-31T12:51:06;100844.47;;;20.75;56.32
13952;BME280;39535;52.192;9.886;2023-08-31T12:53:37;100849.84;;;20.40;57.09
13952;BME280;39535;52.192;9.886;2023-08-31T12:56:04;100804.78;;;20.56;58.09
13952;BME280;39535;52.192;9.886;2023-08-31T12:58:31;100794.63;;;20.80;57.01